Archival Weather

Chicago O'Hare International

Chicago, Illinois (KORD)

Report from: Tuesday, February 27, 2024 5:51 PM CST
Current time: Wednesday, May 29, 2024 7:07 PM CDT

Current weather – Weather history – Daily summaries
Weather forecast

Temperature19.4°C (66.9°F)
Dew point14.4°C (57.9°F)
Winds 5 kts (2.6 m/s, 5.8 mph) Southeast (140°)
Visibility10 mi. (16.1 km)
Clouds Few clouds 4,000 ft. (1,219 m)
Ceiling: Broken clouds 14,000 ft. (4,267 m)
Overcast 25,000 ft. (7,620 m)
Altimeter29.26 in.Hg (991 mB)
Relative humidity73 %
Density altitude1,517 ft. (462 m)
Sea-level pressure99.1 kPa (991 mB, 29.25 in.Hg)
Max temp last 6 hours23.3°C (73.9°F)
Min temp last 6 hours19.4°C (66.9°F)
Remarks System requires maintenance
Automated weather observing station with precipitation discriminator
Lightning observed
Distant west
Pressure falling more quickly
Flight conditions Visual Meteorological Conditions
Raw dataKORD 272351Z 14005KT 10SM FEW040 BKN140 OVC250 19/14 A2926 RMK AO2 LTG DSNT W SLP905 T01940144 10233 20194 58004 $
An error has occurred. This application may no longer respond until reloaded. Reload 🗙